Time;durP1;ratioP1;P1;durP2;ratioP2;P2;SDS_P1;SDS_P2;PMS_P1;PMS_P2;Temp;Humidity;BMP_temperature;BMP_pressure;BME280_temperature;BME280_humidity;BME280_pressure;Samples;Min_cycle;Max_cycle;Signal;HPM_P1;HPM_P2
2021/07/31 00:01:53;;;;;;;11.88;8.70;;;17.30;99.90;;;;;;6198599;23;20200;-83
2021/07/31 00:04:20;;;;;;;7.65;6.95;;;17.40;99.90;;;;;;6200598;23;20265;-82
2021/07/31 00:06:47;;;;;;;8.68;7.78;;;17.30;99.90;;;;;;6201097;23;20206;-84
2021/07/31 00:09:14;;;;;;;9.63;7.28;;;17.30;99.90;;;;;;6196686;23;20233;-85
2021/07/31 00:11:41;;;;;;;7.57;6.65;;;17.20;99.90;;;;;;6197791;23;20184;-84
2021/07/31 00:14:09;;;;;;;7.03;6.32;;;17.10;99.90;;;;;;6196922;23;20178;-84
2021/07/31 00:16:36;;;;;;;9.85;6.30;;;17.10;99.90;;;;;;6198080;23;20202;-83
2021/07/31 00:19:03;;;;;;;8.43;6.80;;;17.00;99.90;;;;;;6198483;23;20182;-84
2021/07/31 00:21:32;;;;;;;7.00;6.22;;;16.90;99.90;;;;;;6199350;23;20238;-83
2021/07/31 00:23:59;;;;;;;6.30;5.38;;;16.90;99.90;;;;;;6199764;23;20198;-84
2021/07/31 00:26:42;;;;;;;8.88;5.90;;;16.80;99.90;;;;;;6201738;23;20220;-83
2021/07/31 00:29:10;;;;;;;26.02;18.05;;;16.70;99.90;;;;;;6196806;23;20189;-82
2021/07/31 00:31:37;;;;;;;13.48;10.00;;;16.70;99.90;;;;;;6196982;23;20317;-84
2021/07/31 00:34:04;;;;;;;7.90;6.13;;;16.70;99.90;;;;;;6198021;23;20323;-83
2021/07/31 00:36:31;;;;;;;10.00;6.65;;;16.60;99.90;;;;;;6197479;23;20695;-83
2021/07/31 00:38:59;;;;;;;4.50;4.10;;;16.60;99.90;;;;;;6198032;23;20193;-84
2021/07/31 00:41:26;;;;;;;6.35;5.32;;;16.50;99.90;;;;;;6196929;23;20185;-84
2021/07/31 00:43:53;;;;;;;6.47;5.40;;;16.50;99.90;;;;;;6198090;23;20166;-83
2021/07/31 00:46:22;;;;;;;5.60;4.75;;;16.40;99.90;;;;;;6199371;23;20200;-85
2021/07/31 00:48:50;;;;;;;8.38;4.80;;;16.40;99.90;;;;;;6201974;23;20219;-84
2021/07/31 00:51:18;;;;;;;7.72;4.53;;;16.30;99.90;;;;;;6202912;23;20216;-84
2021/07/31 00:53:46;;;;;;;5.90;5.30;;;16.30;99.90;;;;;;6205639;23;20282;-84
2021/07/31 00:56:13;;;;;;;6.10;4.03;;;16.20;99.90;;;;;;6199677;23;20558;-84
2021/07/31 00:58:40;;;;;;;4.22;3.83;;;16.20;99.90;;;;;;6201205;23;20499;-85
2021/07/31 01:01:07;;;;;;;6.60;4.95;;;16.10;99.90;;;;;;6201117;23;20188;-84
2021/07/31 01:03:36;;;;;;;5.50;4.90;;;16.10;99.90;;;;;;6206072;23;20164;-85
2021/07/31 01:06:03;;;;;;;7.15;4.85;;;16.10;99.90;;;;;;6212315;23;20207;-82
2021/07/31 01:08:30;;;;;;;6.05;4.70;;;16.10;99.90;;;;;;6206593;23;20176;-83
2021/07/31 01:10:57;;;;;;;8.63;4.55;;;16.10;99.90;;;;;;6200250;23;20214;-82
2021/07/31 01:13:25;;;;;;;6.72;4.70;;;16.10;99.90;;;;;;6204360;23;20176;-83
2021/07/31 01:16:00;;;;;;;5.07;4.40;;;16.20;99.90;;;;;;6204585;23;20178;-84
2021/07/31 01:18:28;;;;;;;5.25;4.80;;;16.20;99.90;;;;;;6207230;23;20212;-83
2021/07/31 01:20:56;;;;;;;9.02;4.75;;;16.20;99.90;;;;;;6207947;23;20169;-82
2021/07/31 01:23:25;;;;;;;5.38;4.28;;;16.20;99.90;;;;;;6207603;23;20182;-84
2021/07/31 01:25:52;;;;;;;4.30;3.90;;;16.30;99.90;;;;;;6205095;23;20204;-84
2021/07/31 01:28:19;;;;;;;4.88;3.97;;;16.40;99.90;;;;;;6204466;23;20228;-84
2021/07/31 01:30:47;;;;;;;4.65;4.25;;;16.40;99.90;;;;;;6207886;23;20187;-83
2021/07/31 01:33:14;;;;;;;6.18;3.92;;;16.40;99.90;;;;;;6205487;23;20165;-85
2021/07/31 01:35:41;;;;;;;5.07;4.55;;;16.50;99.90;;;;;;6205726;23;20184;-83
2021/07/31 01:38:08;;;;;;;7.05;4.63;;;16.50;99.90;;;;;;6206254;23;20201;-84
2021/07/31 01:40:36;;;;;;;8.52;4.82;;;16.60;99.90;;;;;;6212011;23;20173;-84
2021/07/31 01:43:03;;;;;;;5.97;4.18;;;16.50;99.90;;;;;;6213183;23;20161;-82
2021/07/31 01:45:30;;;;;;;5.65;4.25;;;16.50;99.90;;;;;;6213318;23;20212;-84
2021/07/31 01:47:57;;;;;;;7.25;4.35;;;16.60;99.90;;;;;;6209300;23;20254;-84
2021/07/31 01:50:24;;;;;;;5.00;4.00;;;16.70;99.90;;;;;;6209267;23;20191;-85
2021/07/31 01:52:51;;;;;;;7.38;4.20;;;16.60;99.90;;;;;;6206732;23;20181;-85
2021/07/31 01:55:18;;;;;;;4.70;4.03;;;16.60;99.90;;;;;;6206890;23;20233;-86
2021/07/31 01:57:47;;;;;;;7.20;4.70;;;16.60;99.90;;;;;;6203064;23;20189;-85
2021/07/31 02:00:14;;;;;;;5.90;5.20;;;16.60;99.90;;;;;;6206531;23;20188;-85
2021/07/31 02:02:41;;;;;;;4.80;4.30;;;16.60;99.90;;;;;;6210523;23;20226;-84
2021/07/31 02:05:09;;;;;;;4.13;3.55;;;16.50;99.90;;;;;;6209973;23;20233;-84
2021/07/31 02:07:36;;;;;;;6.72;4.00;;;16.50;99.90;;;;;;6211680;23;20566;-83
2021/07/31 02:10:03;;;;;;;4.13;3.78;;;16.50;99.90;;;;;;6209945;23;20230;-84
2021/07/31 02:12:30;;;;;;;9.07;3.65;;;16.50;99.90;;;;;;6207256;23;20166;-83
2021/07/31 02:14:59;;;;;;;11.35;3.97;;;16.50;99.90;;;;;;6207720;23;20177;-84
2021/07/31 02:17:26;;;;;;;3.60;3.08;;;16.40;99.90;;;;;;6205653;23;20559;-83
2021/07/31 02:19:53;;;;;;;5.78;3.65;;;16.40;99.90;;;;;;6207201;23;20181;-84
2021/07/31 02:22:20;;;;;;;7.30;4.20;;;16.40;99.90;;;;;;6208303;23;20189;-84
2021/07/31 02:24:47;;;;;;;4.18;3.80;;;16.40;99.90;;;;;;6202868;23;20256;-85
2021/07/31 02:27:14;;;;;;;5.90;2.80;;;16.50;99.90;;;;;;6206060;23;20197;-84
2021/07/31 02:29:41;;;;;;;7.75;3.83;;;16.30;99.90;;;;;;6206019;23;20185;-85
2021/07/31 02:32:10;;;;;;;5.07;3.50;;;16.50;99.90;;;;;;6207114;23;20166;-84
2021/07/31 02:34:37;;;;;;;6.55;3.97;;;16.50;99.90;;;;;;6204076;23;20181;-84
2021/07/31 02:37:04;;;;;;;5.10;2.92;;;16.50;99.90;;;;;;6205892;23;20191;-83
2021/07/31 02:39:31;;;;;;;5.18;3.28;;;16.40;99.90;;;;;;6205044;23;20232;-84
2021/07/31 02:41:58;;;;;;;12.50;2.83;;;16.40;99.90;;;;;;6202623;23;20181;-84
2021/07/31 02:44:25;;;;;;;4.80;2.75;;;16.30;99.90;;;;;;6205818;23;20180;-84
2021/07/31 02:46:52;;;;;;;5.50;3.25;;;16.30;99.90;;;;;;6206636;23;20202;-84
2021/07/31 02:49:21;;;;;;;7.05;3.28;;;16.30;99.90;;;;;;6207466;23;20180;-85
2021/07/31 02:51:48;;;;;;;3.97;2.30;;;16.40;99.90;;;;;;6207928;23;20181;-84
2021/07/31 02:54:16;;;;;;;4.28;3.10;;;16.40;99.90;;;;;;6209968;23;20235;-83
2021/07/31 02:56:43;;;;;;;7.82;2.83;;;16.40;99.90;;;;;;6209634;23;20215;-83
2021/07/31 02:59:10;;;;;;;8.77;2.85;;;16.40;99.90;;;;;;6210242;23;20165;-85
2021/07/31 03:01:37;;;;;;;4.05;2.30;;;16.40;99.90;;;;;;6210004;23;20227;-84
2021/07/31 03:04:05;;;;;;;8.45;2.40;;;16.30;99.90;;;;;;6208458;23;20448;-84
2021/07/31 03:06:33;;;;;;;7.97;3.50;;;16.30;99.90;;;;;;6207039;23;20208;-84
2021/07/31 03:09:00;;;;;;;6.30;2.30;;;16.30;99.90;;;;;;6207748;23;20186;-83
2021/07/31 03:11:27;;;;;;;6.50;2.65;;;16.40;99.90;;;;;;6209174;23;20187;-83
2021/07/31 03:13:54;;;;;;;4.65;2.55;;;16.40;99.90;;;;;;6209337;23;20180;-84
2021/07/31 03:16:21;;;;;;;10.57;3.75;;;16.40;99.90;;;;;;6209597;23;20201;-83
2021/07/31 03:18:48;;;;;;;8.00;3.35;;;16.40;99.90;;;;;;6209603;23;20180;-85
2021/07/31 03:21:15;;;;;;;3.58;2.63;;;16.40;99.90;;;;;;6209399;23;20180;-83
2021/07/31 03:23:44;;;;;;;4.32;2.70;;;16.40;99.90;;;;;;6208403;23;20262;-85
2021/07/31 03:26:11;;;;;;;3.45;2.78;;;16.40;99.90;;;;;;6207888;23;20209;-83
2021/07/31 03:28:38;;;;;;;4.18;2.85;;;16.30;99.90;;;;;;6208615;23;20149;-84
2021/07/31 03:31:05;;;;;;;3.85;2.35;;;16.30;99.90;;;;;;6208407;23;20185;-85
2021/07/31 03:33:32;;;;;;;5.68;2.92;;;16.30;99.90;;;;;;6207067;23;20190;-84
2021/07/31 03:35:59;;;;;;;5.90;2.60;;;16.30;99.90;;;;;;6205380;23;20183;-85
2021/07/31 03:38:26;;;;;;;6.82;3.35;;;16.30;99.90;;;;;;6203822;23;20186;-84
2021/07/31 03:40:55;;;;;;;8.68;2.58;;;16.40;99.90;;;;;;6204041;23;20210;-84
2021/07/31 03:43:22;;;;;;;3.63;2.65;;;16.40;99.90;;;;;;6202040;23;20183;-84
2021/07/31 03:45:49;;;;;;;6.07;3.30;;;16.40;99.90;;;;;;6207476;23;20184;-84
2021/07/31 03:48:16;;;;;;;5.18;2.90;;;16.40;99.90;;;;;;6203544;23;20169;-84
2021/07/31 03:50:43;;;;;;;6.05;2.90;;;16.40;99.90;;;;;;6200992;23;20181;-85
2021/07/31 03:53:10;;;;;;;5.95;3.03;;;16.40;99.90;;;;;;6202754;23;20185;-83
2021/07/31 03:55:37;;;;;;;5.15;3.05;;;16.40;99.90;;;;;;6206241;23;20228;-85
2021/07/31 03:58:06;;;;;;;5.47;2.60;;;16.40;99.90;;;;;;6204867;23;20201;-84
2021/07/31 04:00:33;;;;;;;3.78;2.30;;;16.50;99.90;;;;;;6209314;23;20180;-83
2021/07/31 04:03:00;;;;;;;7.95;2.45;;;16.50;99.90;;;;;;6212208;23;20230;-84
2021/07/31 04:05:27;;;;;;;4.70;2.90;;;16.50;99.90;;;;;;6197625;23;20210;-84
2021/07/31 04:07:54;;;;;;;4.82;3.22;;;16.50;99.90;;;;;;6195830;23;20204;-85
2021/07/31 04:10:21;;;;;;;3.30;2.22;;;16.50;99.90;;;;;;6196390;23;20639;-83
2021/07/31 04:12:48;;;;;;;4.80;3.40;;;16.60;99.90;;;;;;6196402;23;20185;-83
2021/07/31 04:15:17;;;;;;;7.60;3.13;;;16.60;99.90;;;;;;6194772;23;20558;-83
2021/07/31 04:17:44;;;;;;;10.82;3.85;;;16.70;99.90;;;;;;6195085;23;20720;-84
2021/07/31 04:20:12;;;;;;;3.85;2.90;;;16.80;99.90;;;;;;6195024;23;20170;-84
2021/07/31 04:22:39;;;;;;;8.43;3.50;;;16.80;99.90;;;;;;6197942;23;20177;-85
2021/07/31 04:25:07;;;;;;;3.80;2.70;;;16.80;99.90;;;;;;6197074;23;20274;-83
2021/07/31 04:27:35;;;;;;;3.78;2.60;;;16.80;99.90;;;;;;6195224;23;20210;-83
2021/07/31 04:30:03;;;;;;;7.68;3.10;;;16.70;99.90;;;;;;6199287;23;20185;-84
2021/07/31 04:32:32;;;;;;;6.13;2.20;;;16.70;99.90;;;;;;6197781;23;20232;-83
2021/07/31 04:34:59;;;;;;;8.77;3.45;;;16.60;99.90;;;;;;6197389;23;20177;-84
2021/07/31 04:37:26;;;;;;;5.88;2.70;;;16.60;99.90;;;;;;6198679;23;20219;-83
2021/07/31 04:39:53;;;;;;;4.20;2.67;;;16.70;99.90;;;;;;6197125;23;20185;-84
2021/07/31 04:42:20;;;;;;;6.15;3.22;;;16.70;99.90;;;;;;6213631;23;20180;-84
2021/07/31 04:44:47;;;;;;;7.00;3.00;;;16.70;99.90;;;;;;6214793;23;20173;-84
2021/07/31 04:47:14;;;;;;;4.82;2.92;;;16.80;99.90;;;;;;6214174;23;20186;-85
2021/07/31 04:49:42;;;;;;;6.70;2.80;;;16.80;99.90;;;;;;6215226;23;20167;-84
2021/07/31 04:52:10;;;;;;;5.25;3.08;;;16.70;99.90;;;;;;6215511;23;20168;-84
2021/07/31 04:54:41;;;;;;;8.77;3.05;;;16.70;99.90;;;;;;6207998;23;20254;-83
2021/07/31 04:57:09;;;;;;;4.03;3.22;;;16.70;99.90;;;;;;6198668;23;20255;-83
2021/07/31 04:59:36;;;;;;;7.05;2.60;;;16.60;99.90;;;;;;6197669;23;20213;-82
2021/07/31 05:02:03;;;;;;;5.53;3.22;;;16.60;99.90;;;;;;6198449;23;20180;-82
2021/07/31 05:04:32;;;;;;;5.35;3.28;;;16.60;99.90;;;;;;6198455;23;20200;-84
2021/07/31 05:07:00;;;;;;;4.47;3.35;;;16.70;99.90;;;;;;6201568;23;20228;-82
2021/07/31 05:09:27;;;;;;;9.23;3.13;;;17.00;99.90;;;;;;6201383;23;20172;-82
2021/07/31 05:11:54;;;;;;;7.70;3.27;;;17.60;99.90;;;;;;6199066;23;20499;-83
2021/07/31 05:14:21;;;;;;;7.53;3.67;;;18.50;99.90;;;;;;6200212;23;20436;-82
2021/07/31 05:16:48;;;;;;;7.27;2.93;;;18.90;99.90;;;;;;6197431;23;20426;-82
2021/07/31 05:19:15;;;;;;;6.23;4.40;;;19.50;99.90;;;;;;6203741;23;20427;-83
2021/07/31 05:21:43;;;;;;;8.83;2.73;;;19.80;99.90;;;;;;6202183;23;20413;-84
2021/07/31 05:24:11;;;;;;;3.20;2.70;;;19.60;99.90;;;;;;6201354;23;20404;-84
2021/07/31 05:26:39;;;;;;;5.77;4.50;;;19.50;99.90;;;;;;6200054;23;20450;-84
2021/07/31 05:29:07;;;;;;;4.63;2.17;;;19.00;99.90;;;;;;6202942;23;20399;-84
2021/07/31 05:31:35;;;;;;;5.47;3.40;;;19.00;99.90;;;;;;6201504;23;20450;-84
2021/07/31 05:34:02;;;;;;;3.83;2.50;;;19.60;99.90;;;;;;6195635;23;20418;-84
2021/07/31 05:36:30;;;;;;;8.90;3.47;;;20.10;99.90;;;;;;6196832;23;20427;-84
2021/07/31 05:38:57;;;;;;;3.93;2.60;;;20.70;99.90;;;;;;6196247;23;20446;-85
2021/07/31 05:41:26;;;;;;;4.70;2.30;;;21.00;99.90;;;;;;6195426;23;20439;-84
2021/07/31 05:43:53;;;;;;;7.17;4.07;;;20.70;99.90;;;;;;6194476;23;20414;-84
2021/07/31 05:46:20;;;;;;;3.47;2.77;;;20.00;99.90;;;;;;6195815;23;20447;-84
2021/07/31 05:48:47;;;;;;;5.60;2.70;;;19.70;99.90;;;;;;6198062;23;20410;-85
2021/07/31 05:51:15;;;;;;;7.60;3.30;;;19.60;99.90;;;;;;6196901;23;20410;-84
2021/07/31 05:53:42;;;;;;;4.63;3.07;;;19.70;99.90;;;;;;6195801;23;20397;-84
2021/07/31 05:56:11;;;;;;;6.50;2.70;;;20.30;99.90;;;;;;6196933;23;20419;-84
2021/07/31 05:58:39;;;;;;;6.63;2.17;;;20.80;99.90;;;;;;6195312;23;20407;-84
2021/07/31 06:01:07;;;;;;;4.90;2.40;;;20.90;99.90;;;;;;6196780;23;20923;-85
2021/07/31 06:03:34;;;;;;;8.73;2.60;;;21.30;99.90;;;;;;6196940;23;20417;-85
2021/07/31 06:06:01;;;;;;;7.07;2.07;;;21.90;99.90;;;;;;6195499;23;20446;-85
2021/07/31 06:08:28;;;;;;;4.60;2.47;;;21.90;99.90;;;;;;6194240;23;20468;-84
2021/07/31 06:11:00;;;;;;;6.60;4.53;;;21.80;99.90;;;;;;6195366;23;20410;-84
2021/07/31 06:13:28;;;;;;;5.93;3.70;;;21.40;99.90;;;;;;6199993;23;20405;-84
2021/07/31 06:15:56;;;;;;;7.63;4.00;;;21.20;99.90;;;;;;6213716;23;20395;-83
2021/07/31 06:18:23;;;;;;;5.93;3.40;;;20.70;99.90;;;;;;6214288;23;20398;-83
2021/07/31 06:20:50;;;;;;;7.07;3.00;;;20.50;99.90;;;;;;6214753;23;20398;-83
2021/07/31 06:23:17;;;;;;;6.00;2.40;;;20.60;99.90;;;;;;6198882;23;20411;-82
2021/07/31 06:25:45;;;;;;;6.23;4.00;;;20.50;99.90;;;;;;6194264;23;20558;-80
2021/07/31 06:28:12;;;;;;;4.67;3.80;;;20.60;99.90;;;;;;6196169;23;20426;-81
2021/07/31 06:30:39;;;;;;;3.67;2.60;;;19.90;99.90;;;;;;6198520;23;20435;-80
2021/07/31 06:33:07;;;;;;;6.13;3.47;;;19.40;99.90;;;;;;6195420;23;20466;-80
2021/07/31 06:35:36;;;;;;;5.50;3.30;;;18.80;99.90;;;;;;6196749;23;20404;-81
2021/07/31 06:38:03;;;;;;;7.00;4.60;;;18.30;99.90;;;;;;6196535;23;20434;-80
2021/07/31 06:40:31;;;;;;;6.70;4.43;;;17.80;99.90;;;;;;6198534;23;20410;-81
2021/07/31 06:42:58;;;;;;;3.50;2.90;;;17.80;99.90;;;;;;6195733;23;20418;-80
2021/07/31 06:45:28;;;;;;;8.70;2.97;;;17.50;99.90;;;;;;6197990;23;20410;-84
2021/07/31 06:47:55;;;;;;;6.40;4.00;;;17.60;99.90;;;;;;6196316;23;20426;-84
2021/07/31 06:50:23;;;;;;;5.20;4.05;;;17.50;99.90;;;;;;6197168;23;20412;-84
2021/07/31 06:52:50;;;;;;;4.40;3.20;;;17.50;99.90;;;;;;6198181;23;20182;-82
2021/07/31 06:55:17;;;;;;;6.60;3.23;;;17.30;99.90;;;;;;6197721;23;20210;-83
2021/07/31 06:57:44;;;;;;;7.10;3.80;;;17.30;99.90;;;;;;6201353;23;20435;-81
2021/07/31 07:00:13;;;;;;;9.02;4.50;;;17.20;99.90;;;;;;6199247;23;20233;-82
2021/07/31 07:02:41;;;;;;;6.72;4.50;;;17.20;99.90;;;;;;6199192;23;20176;-83
2021/07/31 07:05:36;;;;;;;5.55;4.05;;;17.00;99.90;;;;;;6197818;23;20189;-83
2021/07/31 07:08:03;;;;;;;6.13;3.95;;;17.10;99.90;;;;;;6204389;23;20250;-87
2021/07/31 07:10:30;;;;;;;4.75;3.67;;;17.20;99.90;;;;;;6204638;23;20207;-82
2021/07/31 07:12:57;;;;;;;10.10;3.65;;;17.20;99.90;;;;;;6202198;23;20179;-82
2021/07/31 07:15:26;;;;;;;7.45;5.20;;;17.10;99.90;;;;;;6199371;23;20183;-83
2021/07/31 07:17:53;;;;;;;6.20;2.97;;;17.20;99.90;;;;;;6204177;23;20237;-83
2021/07/31 07:20:20;;;;;;;5.03;3.20;;;17.80;99.90;;;;;;6200233;23;20180;-82
2021/07/31 07:22:48;;;;;;;7.00;2.83;;;18.40;99.90;;;;;;6201029;23;20414;-82
2021/07/31 07:25:16;;;;;;;9.97;3.37;;;18.40;99.90;;;;;;6199028;23;20414;-83
2021/07/31 07:27:43;;;;;;;5.50;3.60;;;18.80;99.90;;;;;;6197956;23;20450;-83
2021/07/31 07:30:14;;;;;;;8.20;3.47;;;19.00;99.90;;;;;;6197602;23;20415;-83
2021/07/31 07:32:41;;;;;;;7.80;2.80;;;18.90;99.90;;;;;;6199493;23;20412;-85
2021/07/31 07:35:08;;;;;;;5.00;3.03;;;19.50;99.90;;;;;;6198627;23;20414;-83
2021/07/31 07:37:35;;;;;;;11.97;3.20;;;19.60;99.90;;;;;;6199002;23;20423;-82
2021/07/31 07:40:05;;;;;;;7.10;3.37;;;19.70;99.90;;;;;;6198192;23;20435;-83
2021/07/31 07:42:32;;;;;;;5.13;2.87;;;20.40;99.90;;;;;;6198226;23;20498;-87
2021/07/31 07:44:59;;;;;;;6.00;3.20;;;20.10;99.90;;;;;;6198638;23;20411;-83
2021/07/31 07:47:26;;;;;;;5.80;3.73;;;19.80;99.90;;;;;;6200403;23;20447;-86
2021/07/31 07:49:53;;;;;;;5.33;3.03;;;19.60;99.90;;;;;;6198236;23;20421;-92
2021/07/31 07:52:21;;;;;;;7.73;3.53;;;19.20;99.90;;;;;;6202115;23;20714;-85
2021/07/31 07:54:48;;;;;;;6.03;3.33;;;18.90;99.90;;;;;;6198167;23;20403;-84
2021/07/31 07:57:17;;;;;;;5.23;2.87;;;18.70;99.90;;;;;;6201414;23;20422;-87
2021/07/31 07:59:44;;;;;;;5.80;2.90;;;18.50;99.90;;;;;;6200145;23;20412;-90
2021/07/31 08:02:11;;;;;;;4.07;3.67;;;18.30;99.90;;;;;;6203680;23;20470;-85
2021/07/31 08:04:40;;;;;;;9.13;3.93;;;18.40;99.90;;;;;;6200061;23;20191;-86
2021/07/31 08:07:08;;;;;;;7.27;3.23;;;18.40;99.90;;;;;;6199830;23;20491;-85
2021/07/31 08:09:37;;;;;;;3.40;2.47;;;18.60;99.90;;;;;;6202338;23;20424;-85
2021/07/31 08:12:05;;;;;;;7.80;3.10;;;19.10;99.90;;;;;;6203603;23;20441;-84
2021/07/31 08:14:34;;;;;;;5.60;3.53;;;19.60;99.90;;;;;;6199730;23;20403;-83
2021/07/31 08:17:01;;;;;;;6.77;3.43;;;20.30;99.90;;;;;;6197002;23;20427;-85
2021/07/31 08:19:28;;;;;;;5.10;2.97;;;20.40;99.90;;;;;;6198900;23;20435;-83
2021/07/31 08:21:56;;;;;;;5.73;4.37;;;20.00;99.90;;;;;;6198415;23;20396;-84
2021/07/31 08:24:23;;;;;;;10.17;3.80;;;20.00;99.90;;;;;;6204184;23;20427;-85
2021/07/31 08:26:50;;;;;;;3.57;2.53;;;19.80;99.90;;;;;;6202297;23;20455;-85
2021/07/31 08:29:17;;;;;;;6.77;2.93;;;20.10;99.90;;;;;;6202288;23;20403;-85
2021/07/31 08:31:46;;;;;;;6.67;3.10;;;20.40;99.90;;;;;;6200503;23;20433;-83
2021/07/31 08:34:13;;;;;;;6.03;3.60;;;20.40;99.90;;;;;;6202761;23;20411;-84
2021/07/31 08:36:41;;;;;;;5.47;2.80;;;20.90;99.90;;;;;;6201385;23;20452;-85
2021/07/31 08:39:08;;;;;;;8.77;3.30;;;20.90;99.90;;;;;;6204034;23;20437;-83
2021/07/31 08:41:35;;;;;;;5.80;3.27;;;21.80;99.90;;;;;;6205740;23;20397;-84
2021/07/31 08:44:04;;;;;;;4.83;2.80;;;22.00;99.90;;;;;;6202328;23;20438;-83
2021/07/31 08:46:31;;;;;;;4.23;2.87;;;21.60;99.90;;;;;;6204064;23;20451;-82
2021/07/31 08:49:01;;;;;;;3.73;2.93;;;21.20;99.90;;;;;;6204596;23;20471;-83
2021/07/31 08:51:32;;;;;;;4.80;3.00;;;20.90;99.90;;;;;;6203003;23;20415;-83
2021/07/31 08:54:02;;;;;;;9.23;3.80;;;20.60;99.90;;;;;;6202288;23;20416;-83
2021/07/31 08:56:29;;;;;;;4.60;2.90;;;20.30;99.90;;;;;;6200835;23;20506;-84
2021/07/31 08:58:59;;;;;;;4.13;2.37;;;19.70;99.90;;;;;;6201874;23;20422;-83
2021/07/31 09:01:26;;;;;;;3.13;2.83;;;19.60;99.90;;;;;;6200728;23;20392;-83
2021/07/31 09:03:54;;;;;;;8.20;3.80;;;19.30;99.90;;;;;;6201289;23;20431;-84
2021/07/31 09:06:29;;;;;;;4.87;2.67;;;19.20;99.90;;;;;;6200972;23;20419;-86
2021/07/31 09:08:58;;;;;;;3.00;2.70;;;19.90;99.90;;;;;;6201849;23;20455;-85
2021/07/31 09:11:26;;;;;;;14.40;3.43;;;21.50;99.90;;;;;;6204312;23;20419;-84
2021/07/31 09:14:09;;;;;;;3.93;2.47;;;22.20;99.90;;;;;;6199991;23;20459;-82
2021/07/31 09:16:36;;;;;;;3.30;2.30;;;22.80;99.90;;;;;;6206182;23;20418;-85
2021/07/31 09:19:05;;;;;;;7.73;2.67;;;22.50;99.90;;;;;;6205920;23;20410;-85
2021/07/31 09:21:34;;;;;;;8.70;3.40;;;22.50;99.90;;;;;;6209112;23;20400;-86
2021/07/31 09:24:03;;;;;;;6.40;2.80;;;22.40;99.90;;;;;;6205218;23;20411;-86
2021/07/31 09:26:37;;;;;;;3.50;2.60;;;22.90;99.70;;;;;;6205358;23;20435;-85
2021/07/31 09:29:09;;;;;;;5.97;2.60;;;22.40;99.90;;;;;;6208733;23;20434;-88
2021/07/31 09:31:39;;;;;;;5.17;2.90;;;22.10;99.90;;;;;;6208245;23;20379;-86
2021/07/31 09:34:08;;;;;;;3.83;2.27;;;21.30;99.90;;;;;;6209197;23;20412;-86
2021/07/31 09:36:45;;;;;;;4.30;2.73;;;21.00;99.90;;;;;;6204051;23;20459;-86
2021/07/31 09:39:58;;;;;;;5.30;2.20;;;21.00;99.90;;;;;;6207728;23;20472;-86
2021/07/31 09:45:48;;;;;;;3.97;2.40;;;21.30;99.90;;;;;;6204620;23;20825;-85
2021/07/31 09:48:15;;;;;;;5.33;2.60;;;21.40;99.90;;;;;;6202927;23;20439;-85
2021/07/31 09:50:46;;;;;;;4.60;1.93;;;20.80;99.90;;;;;;6203707;23;20423;-85
2021/07/31 09:53:15;;;;;;;2.87;2.17;;;20.90;99.90;;;;;;6202096;23;20425;-85
2021/07/31 09:55:46;;;;;;;4.23;2.23;;;20.60;99.90;;;;;;6204274;23;20411;-86
2021/07/31 09:58:18;;;;;;;4.00;1.50;;;20.50;99.90;;;;;;6207438;23;20460;-86
2021/07/31 10:00:46;;;;;;;2.70;1.63;;;20.10;99.90;;;;;;6203948;23;20396;-85
2021/07/31 10:03:14;;;;;;;3.70;2.37;;;19.90;99.90;;;;;;6204998;23;20478;-87
2021/07/31 10:05:44;;;;;;;3.03;1.63;;;19.50;99.90;;;;;;6202473;23;20491;-85
2021/07/31 10:08:12;;;;;;;2.33;2.00;;;19.80;99.90;;;;;;6203610;23;20444;-86
2021/07/31 10:10:41;;;;;;;3.13;2.13;;;19.70;99.90;;;;;;6201422;23;20472;-85
2021/07/31 10:13:37;;;;;;;4.00;1.87;;;19.70;99.90;;;;;;6201930;23;20391;-86
2021/07/31 10:16:05;;;;;;;2.87;2.17;;;19.50;99.90;;;;;;6203243;23;20411;-87
2021/07/31 10:18:32;;;;;;;5.83;2.43;;;19.50;99.90;;;;;;6203525;23;20467;-85
2021/07/31 10:21:17;;;;;;;5.90;3.20;;;19.50;99.90;;;;;;6208521;23;20459;-84
2021/07/31 10:24:02;;;;;;;2.50;2.17;;;19.40;99.90;;;;;;6207612;23;20406;-87
2021/07/31 10:26:34;;;;;;;3.70;2.23;;;19.40;99.90;;;;;;6202363;23;20439;-86
2021/07/31 10:29:39;;;;;;;3.10;2.07;;;19.50;99.90;;;;;;6200234;23;20447;-86
2021/07/31 10:32:35;;;;;;;3.40;2.13;;;20.10;99.90;;;;;;6199951;23;20482;-86
2021/07/31 10:35:03;;;;;;;2.37;2.00;;;20.50;99.90;;;;;;6206356;23;20392;-85
2021/07/31 10:37:47;;;;;;;3.13;1.93;;;20.60;99.90;;;;;;6210234;23;20408;-86
2021/07/31 10:40:43;;;;;;;4.90;2.10;;;20.50;99.90;;;;;;6206874;23;20713;-82
2021/07/31 10:43:13;;;;;;;4.33;1.97;;;20.90;99.90;;;;;;6206399;23;20458;-85
2021/07/31 10:45:40;;;;;;;3.33;1.90;;;21.60;99.90;;;;;;6205167;23;20413;-86
2021/07/31 10:48:37;;;;;;;3.70;2.23;;;21.90;99.90;;;;;;6206970;23;20449;-85
2021/07/31 10:51:05;;;;;;;3.23;2.07;;;22.00;99.90;;;;;;6202971;23;20384;-85
2021/07/31 10:53:50;;;;;;;6.60;2.90;;;22.40;99.90;;;;;;6205695;23;20400;-86
2021/07/31 10:56:17;;;;;;;3.60;2.30;;;22.10;99.90;;;;;;6200009;23;20470;-85
2021/07/31 10:59:17;;;;;;;3.10;2.10;;;21.20;99.90;;;;;;6196551;23;20411;-85
2021/07/31 11:01:45;;;;;;;2.50;2.10;;;20.60;99.90;;;;;;6197987;23;20414;-84
2021/07/31 11:04:54;;;;;;;3.50;2.40;;;20.50;99.90;;;;;;6204574;23;20403;-85
2021/07/31 11:07:25;;;;;;;6.70;2.60;;;20.20;99.90;;;;;;6210994;23;20503;-85
2021/07/31 11:10:34;;;;;;;4.70;2.77;;;20.30;99.90;;;;;;6212185;23;20396;-86
2021/07/31 11:13:02;;;;;;;4.33;3.17;;;20.20;99.90;;;;;;6205048;23;20392;-85
2021/07/31 11:15:30;;;;;;;5.00;2.60;;;19.90;99.90;;;;;;6200432;23;20398;-84
2021/07/31 11:17:59;;;;;;;4.17;2.20;;;19.90;99.90;;;;;;6198890;23;20434;-85
2021/07/31 11:20:32;;;;;;;2.83;1.67;;;20.40;99.90;;;;;;6200901;23;20415;-86
2021/07/31 11:23:05;;;;;;;4.90;2.37;;;20.80;99.90;;;;;;6201192;23;20393;-86
2021/07/31 11:25:33;;;;;;;4.50;2.83;;;20.90;99.90;;;;;;6199950;23;20397;-85
2021/07/31 11:28:07;;;;;;;4.83;2.07;;;20.90;99.90;;;;;;6200183;23;20460;-85
2021/07/31 11:30:49;;;;;;;2.97;2.67;;;20.70;99.90;;;;;;6206113;23;20377;-84
2021/07/31 11:36:13;;;;;;;2.93;2.10;;;20.50;99.90;;;;;;6199192;23;20457;-86
2021/07/31 11:38:42;;;;;;;3.87;2.93;;;20.20;99.90;;;;;;6198581;23;20438;-84
2021/07/31 11:41:10;;;;;;;3.53;3.23;;;20.10;99.90;;;;;;6198268;23;20388;-85
2021/07/31 11:43:58;;;;;;;3.90;3.50;;;19.80;99.90;;;;;;6204666;23;20431;-85
2021/07/31 11:46:32;;;;;;;4.97;4.07;;;19.60;99.90;;;;;;6209506;23;20427;-85
2021/07/31 11:49:00;;;;;;;5.07;4.07;;;19.50;99.90;;;;;;6206526;23;20439;-84
2021/07/31 11:51:28;;;;;;;5.80;3.27;;;19.10;99.90;;;;;;6199781;23;20418;-84
2021/07/31 11:53:56;;;;;;;2.90;1.70;;;18.80;99.90;;;;;;6198882;23;20900;-83
2021/07/31 11:56:24;;;;;;;1.40;1.23;;;18.40;99.90;;;;;;6196714;23;20481;-82
2021/07/31 11:58:53;;;;;;;1.42;0.98;;;18.10;99.90;;;;;;6196898;23;20788;-85
2021/07/31 12:01:21;;;;;;;2.58;1.77;;;17.70;99.90;;;;;;6197148;23;20209;-84
2021/07/31 12:03:51;;;;;;;2.20;1.03;;;17.60;99.90;;;;;;6197572;23;20174;-85
2021/07/31 12:06:46;;;;;;;3.20;1.30;;;17.60;99.90;;;;;;6201022;23;20437;-85
2021/07/31 12:09:24;;;;;;;3.50;1.87;;;17.60;99.90;;;;;;6199769;23;20211;-83
2021/07/31 12:11:53;;;;;;;2.40;2.00;;;17.60;99.90;;;;;;6200943;23;20531;-84
2021/07/31 12:14:35;;;;;;;3.93;2.70;;;17.60;99.90;;;;;;6200465;23;20403;-85
2021/07/31 12:17:23;;;;;;;4.53;2.93;;;17.70;99.90;;;;;;6201091;23;20433;-85
2021/07/31 12:19:53;;;;;;;4.30;3.17;;;17.80;99.90;;;;;;6200678;23;20620;-84
2021/07/31 12:22:23;;;;;;;3.13;2.73;;;17.80;99.90;;;;;;6204028;23;20399;-85
2021/07/31 12:25:08;;;;;;;6.10;3.10;;;17.80;99.90;;;;;;6199027;23;20478;-84
2021/07/31 12:27:58;;;;;;;5.40;2.70;;;17.90;99.90;;;;;;6197957;23;20453;-86
2021/07/31 12:30:40;;;;;;;2.70;2.50;;;18.00;99.90;;;;;;6197307;23;20883;-85
2021/07/31 12:33:19;;;;;;;6.23;3.20;;;18.40;99.90;;;;;;6198675;23;20426;-85
2021/07/31 12:35:48;;;;;;;5.67;2.80;;;18.90;99.90;;;;;;6197493;23;20478;-86
2021/07/31 12:38:18;;;;;;;3.13;2.83;;;19.30;99.90;;;;;;6199733;23;20396;-84
2021/07/31 12:40:46;;;;;;;3.47;3.00;;;19.80;99.90;;;;;;6199399;23;20400;-84
2021/07/31 12:43:15;;;;;;;3.60;2.70;;;20.00;99.90;;;;;;6201303;23;20459;-86
2021/07/31 12:45:44;;;;;;;7.80;3.60;;;20.00;99.90;;;;;;6199171;23;20400;-84
2021/07/31 12:48:11;;;;;;;4.47;3.23;;;20.20;99.90;;;;;;6195732;23;20523;-83
2021/07/31 12:50:39;;;;;;;7.03;3.53;;;20.40;99.90;;;;;;6197063;23;20745;-84
2021/07/31 12:53:08;;;;;;;6.73;3.80;;;20.70;99.90;;;;;;6197852;23;20441;-85
2021/07/31 12:55:35;;;;;;;5.60;4.37;;;20.80;99.90;;;;;;6197999;23;20409;-85
2021/07/31 12:58:02;;;;;;;6.50;3.83;;;20.60;99.90;;;;;;6202809;23;20428;-84
2021/07/31 13:00:30;;;;;;;4.30;3.33;;;20.50;99.90;;;;;;6202569;23;20431;-86
2021/07/31 13:02:58;;;;;;;3.80;2.93;;;20.20;99.90;;;;;;6200615;23;20411;-85
2021/07/31 13:05:27;;;;;;;6.80;3.30;;;19.90;99.90;;;;;;6199676;23;20412;-85